Northfield, Minnesota
Current Conditions -  °F | °C
As of 10:14 AM on Thursday 27 Nov 2014 (Local Time) from KSYN Reporting Station
Clear Clear  
Wind Chill: -10°   Ceiling: Unl
Heat Index:   Visibility: 10mi
Dew Point: -5°   Wind: 5mph
Humidity: 77%   Direction: 280°W
Pressure: 30.51"   Gusts: NA
Location:  44.45°N, 93.15°W
Report Text: KSYN 271614Z AUTO 28004KT 10SM CLR M18/M21 A3051 RMK AO2 T11771208
Loading
Personal Weather Stations






























Interactive Weather Map New forecast layout! Learn more

10-Day Weather Forecast

Advertisements
Track Severe Weather on mobile